sensor_id;sensor_type;location;lat;lon;timestamp;temperature;humidity
4757;DHT22;2392;52.578;13.426;2024-03-23T00:51:37;8.60;99.90
4757;DHT22;2392;52.578;13.426;2024-03-23T00:54:02;8.70;99.90
4757;DHT22;2392;52.578;13.426;2024-03-23T00:56:29;8.70;99.90
4757;DHT22;2392;52.578;13.426;2024-03-23T00:58:55;8.80;99.90
4757;DHT22;2392;52.578;13.426;2024-03-23T01:01:21;8.80;99.90
4757;DHT22;2392;52.578;13.426;2024-03-23T01:03:47;8.80;99.90
4757;DHT22;2392;52.578;13.426;2024-03-23T01:06:15;8.70;99.90
4757;DHT22;2392;52.578;13.426;2024-03-23T01:08:41;8.80;99.90
4757;DHT22;2392;52.578;13.426;2024-03-23T01:11:07;8.80;99.90
4757;DHT22;2392;52.578;13.426;2024-03-23T01:13:33;8.80;99.90
4757;DHT22;2392;52.578;13.426;2024-03-23T01:16:00;8.80;99.90
4757;DHT22;2392;52.578;13.426;2024-03-23T01:18:26;8.80;99.90
4757;DHT22;2392;52.578;13.426;2024-03-23T01:20:52;8.80;99.90
4757;DHT22;2392;52.578;13.426;2024-03-23T01:23:19;8.80;99.90
4757;DHT22;2392;52.578;13.426;2024-03-23T01:25:51;8.80;99.90
4757;DHT22;2392;52.578;13.426;2024-03-23T01:28:17;8.70;99.90
4757;DHT22;2392;52.578;13.426;2024-03-23T01:30:44;8.70;99.90
4757;DHT22;2392;52.578;13.426;2024-03-23T01:33:10;8.70;99.90
4757;DHT22;2392;52.578;13.426;2024-03-23T01:35:36;8.70;99.90
4757;DHT22;2392;52.578;13.426;2024-03-23T01:38:02;8.70;99.90
4757;DHT22;2392;52.578;13.426;2024-03-23T01:40:30;8.70;99.90
4757;DHT22;2392;52.578;13.426;2024-03-23T01:42:58;8.60;99.90
4757;DHT22;2392;52.578;13.426;2024-03-23T01:45:25;8.50;99.90
4757;DHT22;2392;52.578;13.426;2024-03-23T01:47:51;8.60;99.90
4757;DHT22;2392;52.578;13.426;2024-03-23T01:50:19;8.60;99.90
4757;DHT22;2392;52.578;13.426;2024-03-23T01:52:45;8.50;99.90
4757;DHT22;2392;52.578;13.426;2024-03-23T01:55:11;8.60;99.90
4757;DHT22;2392;52.578;13.426;2024-03-23T01:57:39;8.60;99.90
4757;DHT22;2392;52.578;13.426;2024-03-23T02:00:06;8.70;99.90
4757;DHT22;2392;52.578;13.426;2024-03-23T02:02:42;8.60;99.90
4757;DHT22;2392;52.578;13.426;2024-03-23T02:05:08;8.60;99.90
4757;DHT22;2392;52.578;13.426;2024-03-23T02:07:34;8.60;99.90
4757;DHT22;2392;52.578;13.426;2024-03-23T02:10:01;8.60;99.90
4757;DHT22;2392;52.578;13.426;2024-03-23T02:12:27;8.60;99.90
4757;DHT22;2392;52.578;13.426;2024-03-23T02:14:55;8.70;99.90
4757;DHT22;2392;52.578;13.426;2024-03-23T02:17:21;8.70;99.90
4757;DHT22;2392;52.578;13.426;2024-03-23T02:19:48;8.70;99.90
4757;DHT22;2392;52.578;13.426;2024-03-23T02:22:14;8.80;99.90
4757;DHT22;2392;52.578;13.426;2024-03-23T02:24:42;8.80;99.90
4757;DHT22;2392;52.578;13.426;2024-03-23T02:27:08;8.90;99.90
4757;DHT22;2392;52.578;13.426;2024-03-23T02:29:35;8.70;99.90
4757;DHT22;2392;52.578;13.426;2024-03-23T02:32:01;8.60;99.90
4757;DHT22;2392;52.578;13.426;2024-03-23T02:34:27;8.70;99.90
4757;DHT22;2392;52.578;13.426;2024-03-23T02:36:53;8.60;99.90
4757;DHT22;2392;52.578;13.426;2024-03-23T02:39:20;8.50;99.90
4757;DHT22;2392;52.578;13.426;2024-03-23T02:41:47;8.40;99.90
4757;DHT22;2392;52.578;13.426;2024-03-23T02:44:14;8.50;99.90
4757;DHT22;2392;52.578;13.426;2024-03-23T02:46:40;8.50;99.90
4757;DHT22;2392;52.578;13.426;2024-03-23T02:49:06;8.50;99.90
4757;DHT22;2392;52.578;13.426;2024-03-23T02:51:33;8.50;99.90
4757;DHT22;2392;52.578;13.426;2024-03-23T02:53:59;8.50;99.90
4757;DHT22;2392;52.578;13.426;2024-03-23T02:56:25;8.50;99.90
4757;DHT22;2392;52.578;13.426;2024-03-23T02:58:53;8.60;99.90
4757;DHT22;2392;52.578;13.426;2024-03-23T03:01:19;8.60;99.90
4757;DHT22;2392;52.578;13.426;2024-03-23T03:03:46;8.60;99.90
4757;DHT22;2392;52.578;13.426;2024-03-23T03:06:12;8.70;99.90
4757;DHT22;2392;52.578;13.426;2024-03-23T03:08:48;8.70;99.90
4757;DHT22;2392;52.578;13.426;2024-03-23T03:11:14;8.80;99.90
4757;DHT22;2392;52.578;13.426;2024-03-23T03:13:41;8.70;99.90
4757;DHT22;2392;52.578;13.426;2024-03-23T03:16:09;8.70;99.90
4757;DHT22;2392;52.578;13.426;2024-03-23T03:18:36;8.60;99.90
4757;DHT22;2392;52.578;13.426;2024-03-23T03:21:02;8.50;99.90
4757;DHT22;2392;52.578;13.426;2024-03-23T03:23:30;8.50;99.90
4757;DHT22;2392;52.578;13.426;2024-03-23T03:25:56;8.50;99.90
4757;DHT22;2392;52.578;13.426;2024-03-23T03:28:23;8.50;99.90
4757;DHT22;2392;52.578;13.426;2024-03-23T03:30:49;8.40;99.90
4757;DHT22;2392;52.578;13.426;2024-03-23T03:33:17;8.40;99.90
4757;DHT22;2392;52.578;13.426;2024-03-23T03:35:43;8.40;99.90
4757;DHT22;2392;52.578;13.426;2024-03-23T03:38:10;8.30;99.90
4757;DHT22;2392;52.578;13.426;2024-03-23T03:40:36;8.30;99.90
4757;DHT22;2392;52.578;13.426;2024-03-23T03:43:03;8.30;99.90
4757;DHT22;2392;52.578;13.426;2024-03-23T03:45:29;8.30;99.90
4757;DHT22;2392;52.578;13.426;2024-03-23T03:47:56;8.20;99.90
4757;DHT22;2392;52.578;13.426;2024-03-23T03:50:23;8.30;99.90
4757;DHT22;2392;52.578;13.426;2024-03-23T03:52:50;8.30;99.90
4757;DHT22;2392;52.578;13.426;2024-03-23T03:55:16;8.30;99.90
4757;DHT22;2392;52.578;13.426;2024-03-23T03:57:43;8.30;99.90
4757;DHT22;2392;52.578;13.426;2024-03-23T04:00:10;8.20;99.90
4757;DHT22;2392;52.578;13.426;2024-03-23T04:02:37;8.20;99.90
4757;DHT22;2392;52.578;13.426;2024-03-23T04:05:03;8.10;99.90
4757;DHT22;2392;52.578;13.426;2024-03-23T04:07:31;8.10;99.90
4757;DHT22;2392;52.578;13.426;2024-03-23T04:09:57;8.10;99.90
4757;DHT22;2392;52.578;13.426;2024-03-23T04:12:24;8.10;99.90
4757;DHT22;2392;52.578;13.426;2024-03-23T04:14:49;8.10;99.90
4757;DHT22;2392;52.578;13.426;2024-03-23T04:17:16;8.10;99.90
4757;DHT22;2392;52.578;13.426;2024-03-23T04:19:42;8.00;99.90
4757;DHT22;2392;52.578;13.426;2024-03-23T04:22:08;7.90;99.90
4757;DHT22;2392;52.578;13.426;2024-03-23T04:24:35;7.90;99.90
4757;DHT22;2392;52.578;13.426;2024-03-23T04:27:02;7.90;99.90
4757;DHT22;2392;52.578;13.426;2024-03-23T04:29:28;7.90;99.90
4757;DHT22;2392;52.578;13.426;2024-03-23T04:31:55;7.80;99.90
4757;DHT22;2392;52.578;13.426;2024-03-23T04:34:21;7.90;99.90
4757;DHT22;2392;52.578;13.426;2024-03-23T04:36:48;7.90;99.90
4757;DHT22;2392;52.578;13.426;2024-03-23T04:39:14;7.70;99.90
4757;DHT22;2392;52.578;13.426;2024-03-23T04:41:42;7.70;99.90
4757;DHT22;2392;52.578;13.426;2024-03-23T04:44:08;7.50;99.90
4757;DHT22;2392;52.578;13.426;2024-03-23T04:46:35;7.40;99.90
4757;DHT22;2392;52.578;13.426;2024-03-23T04:49:02;7.40;99.90
4757;DHT22;2392;52.578;13.426;2024-03-23T04:51:35;7.50;99.90
4757;DHT22;2392;52.578;13.426;2024-03-23T04:54:02;7.50;99.90
4757;DHT22;2392;52.578;13.426;2024-03-23T04:56:31;7.50;99.90
4757;DHT22;2392;52.578;13.426;2024-03-23T04:58:59;7.50;99.90
4757;DHT22;2392;52.578;13.426;2024-03-23T05:01:27;7.50;99.90
4757;DHT22;2392;52.578;13.426;2024-03-23T05:03:53;7.60;99.90
4757;DHT22;2392;52.578;13.426;2024-03-23T05:06:20;7.60;99.90
4757;DHT22;2392;52.578;13.426;2024-03-23T05:08:46;7.50;99.90
4757;DHT22;2392;52.578;13.426;2024-03-23T05:11:12;7.50;99.90
4757;DHT22;2392;52.578;13.426;2024-03-23T05:13:38;7.50;99.90
4757;DHT22;2392;52.578;13.426;2024-03-23T05:16:06;7.50;99.90
4757;DHT22;2392;52.578;13.426;2024-03-23T05:18:32;7.50;99.90
4757;DHT22;2392;52.578;13.426;2024-03-23T05:20:59;7.50;99.90
4757;DHT22;2392;52.578;13.426;2024-03-23T05:23:25;7.50;99.90
4757;DHT22;2392;52.578;13.426;2024-03-23T05:25:52;7.60;99.90
4757;DHT22;2392;52.578;13.426;2024-03-23T05:28:18;7.60;99.90
4757;DHT22;2392;52.578;13.426;2024-03-23T05:30:50;7.60;99.90
4757;DHT22;2392;52.578;13.426;2024-03-23T05:33:17;7.50;99.90
4757;DHT22;2392;52.578;13.426;2024-03-23T05:35:44;7.40;99.90
4757;DHT22;2392;52.578;13.426;2024-03-23T05:38:10;7.40;99.90
4757;DHT22;2392;52.578;13.426;2024-03-23T05:40:36;7.40;99.90
4757;DHT22;2392;52.578;13.426;2024-03-23T05:43:05;7.50;99.90
4757;DHT22;2392;52.578;13.426;2024-03-23T05:45:32;7.40;99.90
4757;DHT22;2392;52.578;13.426;2024-03-23T05:47:58;7.40;99.90
4757;DHT22;2392;52.578;13.426;2024-03-23T05:50:26;7.50;99.90
4757;DHT22;2392;52.578;13.426;2024-03-23T05:52:51;7.50;99.90
4757;DHT22;2392;52.578;13.426;2024-03-23T05:55:18;7.40;99.90
4757;DHT22;2392;52.578;13.426;2024-03-23T05:57:44;7.50;99.90
4757;DHT22;2392;52.578;13.426;2024-03-23T06:00:11;7.50;99.90
4757;DHT22;2392;52.578;13.426;2024-03-23T06:02:41;7.60;99.90
4757;DHT22;2392;52.578;13.426;2024-03-23T06:05:10;7.60;99.90
4757;DHT22;2392;52.578;13.426;2024-03-23T06:07:37;7.70;99.90
4757;DHT22;2392;52.578;13.426;2024-03-23T06:10:04;7.70;99.90
4757;DHT22;2392;52.578;13.426;2024-03-23T06:12:30;7.70;99.90
4757;DHT22;2392;52.578;13.426;2024-03-23T06:14:57;7.60;99.90
4757;DHT22;2392;52.578;13.426;2024-03-23T06:17:23;7.60;99.90
4757;DHT22;2392;52.578;13.426;2024-03-23T06:19:50;7.80;99.90
4757;DHT22;2392;52.578;13.426;2024-03-23T06:22:15;7.80;99.90
4757;DHT22;2392;52.578;13.426;2024-03-23T06:24:44;7.80;99.90
4757;DHT22;2392;52.578;13.426;2024-03-23T06:27:10;7.70;99.90
4757;DHT22;2392;52.578;13.426;2024-03-23T06:29:36;7.80;99.90
4757;DHT22;2392;52.578;13.426;2024-03-23T06:32:02;7.80;99.90
4757;DHT22;2392;52.578;13.426;2024-03-23T06:34:29;7.90;99.90
4757;DHT22;2392;52.578;13.426;2024-03-23T06:36:55;8.00;99.90
4757;DHT22;2392;52.578;13.426;2024-03-23T06:39:22;8.00;99.90
4757;DHT22;2392;52.578;13.426;2024-03-23T06:41:53;7.90;99.90
4757;DHT22;2392;52.578;13.426;2024-03-23T06:44:20;7.90;99.90
4757;DHT22;2392;52.578;13.426;2024-03-23T06:46:46;7.90;99.90
4757;DHT22;2392;52.578;13.426;2024-03-23T06:49:13;8.00;99.90
4757;DHT22;2392;52.578;13.426;2024-03-23T06:51:38;8.00;99.90
4757;DHT22;2392;52.578;13.426;2024-03-23T06:54:06;8.10;99.90
4757;DHT22;2392;52.578;13.426;2024-03-23T06:56:32;8.20;99.90
4757;DHT22;2392;52.578;13.426;2024-03-23T06:59:00;8.30;99.90
4757;DHT22;2392;52.578;13.426;2024-03-23T07:01:25;8.40;99.90
4757;DHT22;2392;52.578;13.426;2024-03-23T07:03:54;8.50;99.90
4757;DHT22;2392;52.578;13.426;2024-03-23T07:06:19;8.50;99.90
4757;DHT22;2392;52.578;13.426;2024-03-23T07:08:46;8.50;99.90
4757;DHT22;2392;52.578;13.426;2024-03-23T07:11:12;8.60;99.90
4757;DHT22;2392;52.578;13.426;2024-03-23T07:13:39;8.60;99.90
4757;DHT22;2392;52.578;13.426;2024-03-23T07:16:06;8.60;99.90
4757;DHT22;2392;52.578;13.426;2024-03-23T07:18:32;8.50;99.90
4757;DHT22;2392;52.578;13.426;2024-03-23T07:20:59;8.50;99.90
4757;DHT22;2392;52.578;13.426;2024-03-23T07:23:26;8.50;99.90
4757;DHT22;2392;52.578;13.426;2024-03-23T07:25:58;8.50;99.90
4757;DHT22;2392;52.578;13.426;2024-03-23T07:28:24;8.50;99.90
4757;DHT22;2392;52.578;13.426;2024-03-23T07:31:04;8.40;99.90
4757;DHT22;2392;52.578;13.426;2024-03-23T07:33:33;8.50;99.90
4757;DHT22;2392;52.578;13.426;2024-03-23T07:35:58;8.50;99.90
4757;DHT22;2392;52.578;13.426;2024-03-23T07:38:26;8.50;99.90
4757;DHT22;2392;52.578;13.426;2024-03-23T07:40:52;8.60;99.90
4757;DHT22;2392;52.578;13.426;2024-03-23T07:43:21;8.60;99.90
4757;DHT22;2392;52.578;13.426;2024-03-23T07:45:51;8.70;99.90
4757;DHT22;2392;52.578;13.426;2024-03-23T07:48:18;8.70;99.90
4757;DHT22;2392;52.578;13.426;2024-03-23T07:50:45;8.70;99.90
4757;DHT22;2392;52.578;13.426;2024-03-23T07:53:12;8.70;99.90
4757;DHT22;2392;52.578;13.426;2024-03-23T07:55:37;8.70;99.90
4757;DHT22;2392;52.578;13.426;2024-03-23T07:58:04;8.70;99.90
4757;DHT22;2392;52.578;13.426;2024-03-23T08:00:30;8.70;99.90
4757;DHT22;2392;52.578;13.426;2024-03-23T08:02:56;8.60;99.90
4757;DHT22;2392;52.578;13.426;2024-03-23T08:05:22;8.60;99.90
4757;DHT22;2392;52.578;13.426;2024-03-23T08:07:53;8.50;99.90
4757;DHT22;2392;52.578;13.426;2024-03-23T08:10:19;8.30;99.90
4757;DHT22;2392;52.578;13.426;2024-03-23T08:12:46;8.30;99.90
4757;DHT22;2392;52.578;13.426;2024-03-23T08:15:11;8.30;99.90
4757;DHT22;2392;52.578;13.426;2024-03-23T08:17:38;8.10;99.90
4757;DHT22;2392;52.578;13.426;2024-03-23T08:20:05;8.10;99.90
4757;DHT22;2392;52.578;13.426;2024-03-23T08:22:33;8.00;99.90
4757;DHT22;2392;52.578;13.426;2024-03-23T08:25:01;8.00;99.90
4757;DHT22;2392;52.578;13.426;2024-03-23T08:27:27;8.00;99.90
4757;DHT22;2392;52.578;13.426;2024-03-23T08:29:53;7.90;99.90
4757;DHT22;2392;52.578;13.426;2024-03-23T08:32:20;7.90;99.90
4757;DHT22;2392;52.578;13.426;2024-03-23T08:34:45;7.80;99.90
4757;DHT22;2392;52.578;13.426;2024-03-23T08:37:12;7.80;99.90
4757;DHT22;2392;52.578;13.426;2024-03-23T08:39:38;7.80;99.90
4757;DHT22;2392;52.578;13.426;2024-03-23T08:42:06;7.80;99.90
4757;DHT22;2392;52.578;13.426;2024-03-23T08:44:32;7.90;99.90
4757;DHT22;2392;52.578;13.426;2024-03-23T08:46:59;7.80;99.90
4757;DHT22;2392;52.578;13.426;2024-03-23T08:49:24;7.70;99.90
4757;DHT22;2392;52.578;13.426;2024-03-23T08:51:51;7.60;99.90
4757;DHT22;2392;52.578;13.426;2024-03-23T08:54:17;7.60;99.90
4757;DHT22;2392;52.578;13.426;2024-03-23T08:56:45;7.50;99.90
4757;DHT22;2392;52.578;13.426;2024-03-23T08:59:12;7.50;99.90
4757;DHT22;2392;52.578;13.426;2024-03-23T09:01:39;7.40;99.90
4757;DHT22;2392;52.578;13.426;2024-03-23T09:04:05;7.30;99.90
4757;DHT22;2392;52.578;13.426;2024-03-23T09:06:31;7.20;99.90
4757;DHT22;2392;52.578;13.426;2024-03-23T09:08:57;7.20;99.90
4757;DHT22;2392;52.578;13.426;2024-03-23T09:11:24;7.10;99.90
4757;DHT22;2392;52.578;13.426;2024-03-23T09:13:49;7.00;99.90
4757;DHT22;2392;52.578;13.426;2024-03-23T09:16:17;6.90;99.90
4757;DHT22;2392;52.578;13.426;2024-03-23T09:18:43;6.80;99.90
4757;DHT22;2392;52.578;13.426;2024-03-23T09:21:11;6.80;99.90
4757;DHT22;2392;52.578;13.426;2024-03-23T09:23:38;6.80;99.90
4757;DHT22;2392;52.578;13.426;2024-03-23T09:26:05;6.80;99.90
4757;DHT22;2392;52.578;13.426;2024-03-23T09:28:32;6.80;99.90
4757;DHT22;2392;52.578;13.426;2024-03-23T09:31:02;6.70;99.90
4757;DHT22;2392;52.578;13.426;2024-03-23T09:33:29;6.70;99.90
4757;DHT22;2392;52.578;13.426;2024-03-23T09:35:56;6.70;99.90
4757;DHT22;2392;52.578;13.426;2024-03-23T09:38:22;6.70;99.90
4757;DHT22;2392;52.578;13.426;2024-03-23T09:40:52;6.60;99.90
4757;DHT22;2392;52.578;13.426;2024-03-23T09:43:18;6.70;99.90
4757;DHT22;2392;52.578;13.426;2024-03-23T09:45:46;6.70;99.90
4757;DHT22;2392;52.578;13.426;2024-03-23T09:48:12;6.70;99.90
4757;DHT22;2392;52.578;13.426;2024-03-23T09:50:42;6.80;99.90
4757;DHT22;2392;52.578;13.426;2024-03-23T09:53:09;6.90;99.90
4757;DHT22;2392;52.578;13.426;2024-03-23T09:55:37;6.90;99.90
4757;DHT22;2392;52.578;13.426;2024-03-23T09:58:03;6.90;99.90
4757;DHT22;2392;52.578;13.426;2024-03-23T10:00:30;6.70;99.90
4757;DHT22;2392;52.578;13.426;2024-03-23T10:02:56;6.60;99.90
4757;DHT22;2392;52.578;13.426;2024-03-23T10:05:23;6.50;99.90
4757;DHT22;2392;52.578;13.426;2024-03-23T10:07:50;6.40;99.90
4757;DHT22;2392;52.578;13.426;2024-03-23T10:10:17;6.40;99.90
4757;DHT22;2392;52.578;13.426;2024-03-23T10:12:47;6.40;99.90
4757;DHT22;2392;52.578;13.426;2024-03-23T10:15:20;6.30;99.90
4757;DHT22;2392;52.578;13.426;2024-03-23T10:17:46;6.30;99.90
4757;DHT22;2392;52.578;13.426;2024-03-23T10:20:13;6.20;99.90
4757;DHT22;2392;52.578;13.426;2024-03-23T10:22:44;6.20;99.90
4757;DHT22;2392;52.578;13.426;2024-03-23T10:25:12;6.20;99.90
4757;DHT22;2392;52.578;13.426;2024-03-23T10:27:39;6.10;99.90
4757;DHT22;2392;52.578;13.426;2024-03-23T10:30:10;6.20;99.90
4757;DHT22;2392;52.578;13.426;2024-03-23T10:32:37;6.30;99.90
4757;DHT22;2392;52.578;13.426;2024-03-23T10:35:17;6.30;99.90
4757;DHT22;2392;52.578;13.426;2024-03-23T10:37:44;6.40;99.90
4757;DHT22;2392;52.578;13.426;2024-03-23T10:40:13;6.40;99.90
4757;DHT22;2392;52.578;13.426;2024-03-23T10:42:39;6.50;99.90
4757;DHT22;2392;52.578;13.426;2024-03-23T10:45:07;6.50;99.90
4757;DHT22;2392;52.578;13.426;2024-03-23T10:47:34;6.50;99.90
4757;DHT22;2392;52.578;13.426;2024-03-23T10:50:01;6.50;99.90
4757;DHT22;2392;52.578;13.426;2024-03-23T10:52:28;6.50;99.90
4757;DHT22;2392;52.578;13.426;2024-03-23T10:54:56;6.50;99.90
4757;DHT22;2392;52.578;13.426;2024-03-23T10:57:29;6.40;99.90
4757;DHT22;2392;52.578;13.426;2024-03-23T10:59:57;6.40;99.90
4757;DHT22;2392;52.578;13.426;2024-03-23T11:02:23;6.40;99.90
4757;DHT22;2392;52.578;13.426;2024-03-23T11:04:52;6.40;99.90
4757;DHT22;2392;52.578;13.426;2024-03-23T11:07:31;6.40;99.90
4757;DHT22;2392;52.578;13.426;2024-03-23T11:09:59;6.40;99.90
4757;DHT22;2392;52.578;13.426;2024-03-23T11:12:27;6.60;99.90
4757;DHT22;2392;52.578;13.426;2024-03-23T11:14:59;6.80;99.90
4757;DHT22;2392;52.578;13.426;2024-03-23T11:17:26;6.90;99.90
4757;DHT22;2392;52.578;13.426;2024-03-23T11:19:54;6.90;99.90
4757;DHT22;2392;52.578;13.426;2024-03-23T11:22:41;7.10;99.90
4757;DHT22;2392;52.578;13.426;2024-03-23T11:25:16;7.10;99.90
4757;DHT22;2392;52.578;13.426;2024-03-23T11:27:44;7.20;99.90
4757;DHT22;2392;52.578;13.426;2024-03-23T11:30:16;7.20;99.90
4757;DHT22;2392;52.578;13.426;2024-03-23T11:32:43;7.30;99.90
4757;DHT22;2392;52.578;13.426;2024-03-23T11:35:09;7.40;99.90
4757;DHT22;2392;52.578;13.426;2024-03-23T11:37:36;7.40;99.90
4757;DHT22;2392;52.578;13.426;2024-03-23T11:40:19;7.40;99.90
4757;DHT22;2392;52.578;13.426;2024-03-23T11:42:46;7.60;99.90
4757;DHT22;2392;52.578;13.426;2024-03-23T11:45:13;7.60;99.90
4757;DHT22;2392;52.578;13.426;2024-03-23T11:47:40;7.80;99.90
4757;DHT22;2392;52.578;13.426;2024-03-23T11:50:07;8.00;99.90
4757;DHT22;2392;52.578;13.426;2024-03-23T11:52:32;8.10;99.90
4757;DHT22;2392;52.578;13.426;2024-03-23T11:55:05;8.40;99.90
4757;DHT22;2392;52.578;13.426;2024-03-23T11:57:33;8.40;99.90
4757;DHT22;2392;52.578;13.426;2024-03-23T12:00:02;8.50;99.90
4757;DHT22;2392;52.578;13.426;2024-03-23T12:02:27;8.50;99.90
4757;DHT22;2392;52.578;13.426;2024-03-23T12:04:55;8.40;99.90
4757;DHT22;2392;52.578;13.426;2024-03-23T12:07:21;8.20;99.90
4757;DHT22;2392;52.578;13.426;2024-03-23T12:10:03;8.10;99.90
4757;DHT22;2392;52.578;13.426;2024-03-23T12:12:29;7.90;99.90
4757;DHT22;2392;52.578;13.426;2024-03-23T12:15:04;7.80;99.90
4757;DHT22;2392;52.578;13.426;2024-03-23T12:17:31;7.70;99.90
4757;DHT22;2392;52.578;13.426;2024-03-23T12:22:28;7.70;99.90
4757;DHT22;2392;52.578;13.426;2024-03-23T12:24:56;7.80;99.90
4757;DHT22;2392;52.578;13.426;2024-03-23T12:27:22;7.70;99.90
4757;DHT22;2392;52.578;13.426;2024-03-23T12:29:49;7.80;99.90
4757;DHT22;2392;52.578;13.426;2024-03-23T12:32:16;8.00;99.90
4757;DHT22;2392;52.578;13.426;2024-03-23T12:34:43;8.00;99.90
4757;DHT22;2392;52.578;13.426;2024-03-23T12:37:09;8.00;99.90
4757;DHT22;2392;52.578;13.426;2024-03-23T12:39:38;8.00;99.90
4757;DHT22;2392;52.578;13.426;2024-03-23T12:42:04;8.00;99.90
4757;DHT22;2392;52.578;13.426;2024-03-23T12:44:30;8.10;99.90
4757;DHT22;2392;52.578;13.426;2024-03-23T12:46:57;8.40;99.90
4757;DHT22;2392;52.578;13.426;2024-03-23T12:49:25;8.40;99.90
4757;DHT22;2392;52.578;13.426;2024-03-23T12:51:54;8.60;99.90
4757;DHT22;2392;52.578;13.426;2024-03-23T12:54:21;8.70;99.90
4757;DHT22;2392;52.578;13.426;2024-03-23T12:56:47;8.70;99.90
4757;DHT22;2392;52.578;13.426;2024-03-23T12:59:14;8.60;99.90
4757;DHT22;2392;52.578;13.426;2024-03-23T13:01:40;8.50;99.90
4757;DHT22;2392;52.578;13.426;2024-03-23T13:04:07;8.60;99.90
4757;DHT22;2392;52.578;13.426;2024-03-23T13:06:34;8.60;99.90
4757;DHT22;2392;52.578;13.426;2024-03-23T13:09:00;8.80;99.90
4757;DHT22;2392;52.578;13.426;2024-03-23T13:11:27;9.30;99.90
4757;DHT22;2392;52.578;13.426;2024-03-23T13:13:53;9.60;99.90
4757;DHT22;2392;52.578;13.426;2024-03-23T13:16:19;9.80;99.90
4757;DHT22;2392;52.578;13.426;2024-03-23T13:18:47;9.60;99.90
4757;DHT22;2392;52.578;13.426;2024-03-23T13:21:13;9.40;99.90
4757;DHT22;2392;52.578;13.426;2024-03-23T13:23:41;9.40;99.90
4757;DHT22;2392;52.578;13.426;2024-03-23T13:26:08;9.40;99.90
4757;DHT22;2392;52.578;13.426;2024-03-23T13:28:34;9.50;99.90
4757;DHT22;2392;52.578;13.426;2024-03-23T13:31:01;9.90;99.90
4757;DHT22;2392;52.578;13.426;2024-03-23T13:33:29;10.60;99.90
4757;DHT22;2392;52.578;13.426;2024-03-23T13:35:55;11.60;99.90
4757;DHT22;2392;52.578;13.426;2024-03-23T13:38:22;12.80;99.90
4757;DHT22;2392;52.578;13.426;2024-03-23T13:40:57;13.50;99.90
4757;DHT22;2392;52.578;13.426;2024-03-23T13:43:25;13.90;99.90
4757;DHT22;2392;52.578;13.426;2024-03-23T13:45:53;14.40;99.90
4757;DHT22;2392;52.578;13.426;2024-03-23T13:48:23;14.60;99.90
4757;DHT22;2392;52.578;13.426;2024-03-23T13:50:57;14.00;99.90
4757;DHT22;2392;52.578;13.426;2024-03-23T13:53:24;13.20;99.90
4757;DHT22;2392;52.578;13.426;2024-03-23T13:55:49;12.60;99.90
4757;DHT22;2392;52.578;13.426;2024-03-23T13:58:17;12.20;99.90
4757;DHT22;2392;52.578;13.426;2024-03-23T14:00:43;11.90;99.90
4757;DHT22;2392;52.578;13.426;2024-03-23T14:03:10;12.80;99.90
4757;DHT22;2392;52.578;13.426;2024-03-23T14:05:36;13.70;99.90
4757;DHT22;2392;52.578;13.426;2024-03-23T14:08:04;13.80;99.90
4757;DHT22;2392;52.578;13.426;2024-03-23T14:10:30;14.00;99.90
4757;DHT22;2392;52.578;13.426;2024-03-23T14:12:57;13.50;99.90
4757;DHT22;2392;52.578;13.426;2024-03-23T14:15:24;13.10;99.90
4757;DHT22;2392;52.578;13.426;2024-03-23T14:17:50;11.90;99.90
4757;DHT22;2392;52.578;13.426;2024-03-23T14:20:17;11.00;99.90
4757;DHT22;2392;52.578;13.426;2024-03-23T14:22:43;10.20;99.90
4757;DHT22;2392;52.578;13.426;2024-03-23T14:25:10;9.90;99.90
4757;DHT22;2392;52.578;13.426;2024-03-23T14:27:36;9.60;99.90
4757;DHT22;2392;52.578;13.426;2024-03-23T14:30:03;9.50;99.90
4757;DHT22;2392;52.578;13.426;2024-03-23T14:32:32;9.50;99.90
4757;DHT22;2392;52.578;13.426;2024-03-23T14:34:59;9.40;99.90
4757;DHT22;2392;52.578;13.426;2024-03-23T14:37:26;9.20;99.90
4757;DHT22;2392;52.578;13.426;2024-03-23T14:39:52;9.10;99.90
4757;DHT22;2392;52.578;13.426;2024-03-23T14:42:18;8.90;99.90
4757;DHT22;2392;52.578;13.426;2024-03-23T14:44:44;8.60;99.90
4757;DHT22;2392;52.578;13.426;2024-03-23T14:47:11;8.30;99.90
4757;DHT22;2392;52.578;13.426;2024-03-23T14:49:38;8.10;99.90
4757;DHT22;2392;52.578;13.426;2024-03-23T14:52:05;8.00;99.90
4757;DHT22;2392;52.578;13.426;2024-03-23T14:54:30;7.70;99.90
4757;DHT22;2392;52.578;13.426;2024-03-23T14:56:57;7.60;99.90
4757;DHT22;2392;52.578;13.426;2024-03-23T14:59:23;7.50;99.90
4757;DHT22;2392;52.578;13.426;2024-03-23T15:01:50;7.30;99.90
4757;DHT22;2392;52.578;13.426;2024-03-23T15:04:16;7.30;99.90
4757;DHT22;2392;52.578;13.426;2024-03-23T15:06:47;7.20;99.90
4757;DHT22;2392;52.578;13.426;2024-03-23T15:09:15;7.00;99.90
4757;DHT22;2392;52.578;13.426;2024-03-23T15:11:41;7.10;99.90
4757;DHT22;2392;52.578;13.426;2024-03-23T15:14:07;7.20;99.90
4757;DHT22;2392;52.578;13.426;2024-03-23T15:16:34;7.40;99.90
4757;DHT22;2392;52.578;13.426;2024-03-23T15:19:00;7.50;99.90
4757;DHT22;2392;52.578;13.426;2024-03-23T15:21:27;7.50;99.90
4757;DHT22;2392;52.578;13.426;2024-03-23T15:23:57;7.50;99.90
4757;DHT22;2392;52.578;13.426;2024-03-23T15:26:24;7.40;99.90
4757;DHT22;2392;52.578;13.426;2024-03-23T15:28:49;7.50;99.90
4757;DHT22;2392;52.578;13.426;2024-03-23T15:31:35;7.50;99.90
4757;DHT22;2392;52.578;13.426;2024-03-23T15:34:01;7.50;99.90
4757;DHT22;2392;52.578;13.426;2024-03-23T15:36:29;7.50;99.90
4757;DHT22;2392;52.578;13.426;2024-03-23T15:38:54;7.50;99.90
4757;DHT22;2392;52.578;13.426;2024-03-23T15:41:22;7.50;99.90
4757;DHT22;2392;52.578;13.426;2024-03-23T15:43:49;7.50;99.90
4757;DHT22;2392;52.578;13.426;2024-03-23T15:46:15;7.50;99.90
4757;DHT22;2392;52.578;13.426;2024-03-23T15:48:41;7.50;99.90
4757;DHT22;2392;52.578;13.426;2024-03-23T15:51:12;7.50;99.90
4757;DHT22;2392;52.578;13.426;2024-03-23T15:53:38;7.60;99.90
4757;DHT22;2392;52.578;13.426;2024-03-23T15:56:05;7.60;99.90
4757;DHT22;2392;52.578;13.426;2024-03-23T15:58:33;7.60;99.90
4757;DHT22;2392;52.578;13.426;2024-03-23T16:01:02;7.70;99.90
4757;DHT22;2392;52.578;13.426;2024-03-23T16:03:28;7.70;99.90
4757;DHT22;2392;52.578;13.426;2024-03-23T16:05:56;7.80;99.90
4757;DHT22;2392;52.578;13.426;2024-03-23T16:08:21;7.80;99.90
4757;DHT22;2392;52.578;13.426;2024-03-23T16:10:48;7.80;99.90
4757;DHT22;2392;52.578;13.426;2024-03-23T16:13:14;7.80;99.90
4757;DHT22;2392;52.578;13.426;2024-03-23T16:15:42;7.80;99.90
4757;DHT22;2392;52.578;13.426;2024-03-23T16:18:08;7.80;99.90
4757;DHT22;2392;52.578;13.426;2024-03-23T16:20:35;7.80;99.90
4757;DHT22;2392;52.578;13.426;2024-03-23T16:23:01;7.80;99.90
4757;DHT22;2392;52.578;13.426;2024-03-23T16:25:27;7.80;99.90
4757;DHT22;2392;52.578;13.426;2024-03-23T16:27:53;7.80;99.90
4757;DHT22;2392;52.578;13.426;2024-03-23T16:30:20;7.70;99.90
4757;DHT22;2392;52.578;13.426;2024-03-23T16:32:48;7.80;99.90
4757;DHT22;2392;52.578;13.426;2024-03-23T16:35:17;7.70;99.90
4757;DHT22;2392;52.578;13.426;2024-03-23T16:37:46;7.70;99.90
4757;DHT22;2392;52.578;13.426;2024-03-23T16:40:13;7.70;99.90
4757;DHT22;2392;52.578;13.426;2024-03-23T16:42:39;7.70;99.90
4757;DHT22;2392;52.578;13.426;2024-03-23T16:45:07;7.70;99.90
4757;DHT22;2392;52.578;13.426;2024-03-23T16:47:33;7.60;99.90
4757;DHT22;2392;52.578;13.426;2024-03-23T16:50:01;7.60;99.90
4757;DHT22;2392;52.578;13.426;2024-03-23T16:52:27;7.60;99.90